»·PEaware :: N76PF KAWO-KAWO

N76PF :: KAWO-KAWO

FLIGHT INFORMATION

Flight Status: Arrived
Operator: Privately registered:
United States
More flights under this callsign
Pilot: Anonymous 18068 (18068)
Aircraft: PIPER PA-28 CHEROKEE ARCHER
(P28A)
More flights by this aircraft type
Origin: KAWO Arlington Mun
United States
Destination: KAWO Arlington Mun
United States
More flights between these airports :: More routes between these airports
Route: 1S2
File this flight plan on PilotEdge
Remarks:
Altitude:
(Current/Filed)
1,500ft
Speed:
(Current/Filed)
95kts
Departed: 28-Jan-18 04:34 PM
Arrived: 28-Jan-18 05:14 PM
Distance/Time
Traveled:
0nm/0:40
Distance/Time
To Go:
Arrived

Flight Plot

Page will automatically refresh every two minutes.

Flight plan parsing failed; only flown route is shown


Map Options




Map Legend


Flown Route
Filed Route
Departure Airport
Arrival Airport
Navaid (VOR, NDB)
Fix

Horizontal Profiles

Position Reports

Time Latitude Longitude Heading Altitude Ground
Speed
28-Jan-18 16:07 48.155648 -122.159779 40 128ft 0kts
28-Jan-18 16:08 48.155648 -122.159779 40 128ft 0kts
28-Jan-18 16:09 48.155648 -122.159779 40 128ft 0kts
28-Jan-18 16:10 48.155648 -122.159779 40 128ft 0kts
28-Jan-18 16:11 48.155648 -122.159779 40 128ft 0kts
28-Jan-18 16:12 48.155648 -122.159779 40 128ft 0kts
28-Jan-18 16:13 48.155648 -122.159779 40 128ft 0kts
28-Jan-18 16:14 48.155648 -122.159779 40 128ft 0kts
28-Jan-18 16:15 48.155648 -122.159779 40 128ft 0kts
28-Jan-18 16:16 48.155648 -122.159779 40 128ft 0kts
28-Jan-18 16:17 48.155648 -122.159779 40 128ft 0kts
28-Jan-18 16:18 48.155648 -122.159779 40 128ft 0kts
28-Jan-18 16:19 48.155648 -122.159779 40 128ft 0kts
28-Jan-18 16:20 48.155648 -122.159779 40 128ft 0kts
28-Jan-18 16:21 48.155648 -122.159779 40 128ft 0kts
28-Jan-18 16:22 48.155648 -122.159779 40 128ft 0kts
28-Jan-18 16:23 48.155648 -122.159779 40 128ft 0kts
28-Jan-18 16:24 48.155648 -122.159779 40 128ft 0kts
28-Jan-18 16:25 48.155648 -122.159779 40 128ft 0kts
28-Jan-18 16:26 48.155648 -122.159779 40 128ft 0kts
28-Jan-18 16:27 48.155648 -122.159779 40 128ft 0kts
28-Jan-18 16:28 48.155648 -122.159779 40 128ft 0kts
28-Jan-18 16:29 48.155648 -122.159779 40 128ft 0kts
28-Jan-18 16:30 48.156392 -122.160050 315 129ft 4kts
28-Jan-18 16:31 48.157548 -122.162325 307 129ft 4kts
28-Jan-18 16:32 48.159270 -122.165712 307 132ft 14kts
28-Jan-18 16:33 48.160919 -122.168968 307 132ft 5kts
28-Jan-18 16:34 48.161262 -122.169095 39 132ft 0kts
28-Jan-18 16:35 48.161262 -122.169095 39 132ft 0kts
28-Jan-18 16:36 48.161262 -122.169095 39 132ft 0kts
28-Jan-18 16:37 48.161262 -122.169095 39 132ft 0kts
28-Jan-18 16:38 48.161280 -122.169073 39 132ft 0kts
28-Jan-18 16:39 48.161524 -122.168523 122 132ft 3kts
28-Jan-18 16:40 48.157726 -122.160545 116 392ft 70kts
28-Jan-18 16:41 48.176426 -122.148675 2 1406ft 103kts
28-Jan-18 16:42 48.204634 -122.139471 43 1506ft 106kts
28-Jan-18 16:43 48.226213 -122.110240 54 1465ft 105kts
28-Jan-18 16:44 48.245075 -122.077477 58 1435ft 103kts
28-Jan-18 16:45 48.262054 -122.043220 62 1435ft 101kts
28-Jan-18 16:46 48.273929 -122.006056 79 1426ft 97kts
28-Jan-18 16:47 48.275696 -121.966868 96 1413ft 94kts
28-Jan-18 16:48 48.275103 -121.927525 96 1421ft 94kts
28-Jan-18 16:49 48.276021 -121.888321 93 1432ft 93kts
28-Jan-18 16:50 48.277307 -121.849510 93 1450ft 93kts
28-Jan-18 16:51 48.279100 -121.810479 92 1457ft 94kts
28-Jan-18 16:52 48.280074 -121.771297 96 1521ft 94kts
28-Jan-18 16:53 48.273954 -121.734146 120 1550ft 92kts
28-Jan-18 16:54 48.261265 -121.701180 123 1503ft 91kts
28-Jan-18 16:55 48.248417 -121.669117 112 1461ft 89kts
28-Jan-18 16:56 48.248918 -121.635704 29 1441ft 100kts
28-Jan-18 16:57 48.259777 -121.613635 124 631ft 78kts
28-Jan-18 16:58 48.246196 -121.610369 250 1163ft 79kts
28-Jan-18 16:59 48.257613 -121.643172 341 1184ft 92kts
28-Jan-18 17:00 48.263456 -121.622771 124 824ft 63kts
28-Jan-18 17:01 48.255102 -121.602174 138 763ft 60kts
28-Jan-18 17:02 48.255951 -121.626347 298 1397ft 99kts
28-Jan-18 17:03 48.270488 -121.666908 291 1593ft 123kts
28-Jan-18 17:04 48.276041 -121.718422 274 1441ft 123kts
28-Jan-18 17:05 48.280139 -121.764248 271 1413ft 100kts
28-Jan-18 17:06 48.282037 -121.805344 260 1500ft 99kts
28-Jan-18 17:07 48.280017 -121.847409 253 1555ft 103kts
28-Jan-18 17:08 48.275403 -121.890124 254 1609ft 104kts
28-Jan-18 17:09 48.273790 -121.935167 264 1578ft 111kts
28-Jan-18 17:10 48.274653 -121.981829 265 1531ft 111kts
28-Jan-18 17:11 48.272225 -122.027155 237 1475ft 106kts
28-Jan-18 17:12 48.256012 -122.062308 225 1470ft 104kts
28-Jan-18 17:13 48.239033 -122.096983 226 1473ft 102kts
28-Jan-18 17:14 48.223931 -122.133555 234 1367ft 105kts
28-Jan-18 17:15 48.210798 -122.172218 236 1163ft 104kts
28-Jan-18 17:16 48.194997 -122.198413 199 1016ft 70kts
28-Jan-18 17:17 48.179907 -122.202925 134 856ft 53kts
28-Jan-18 17:18 48.170655 -122.187143 126 550ft 49kts
28-Jan-18 17:19 48.162403 -122.170298 125 182ft 50kts
28-Jan-18 17:20 48.157899 -122.161403 146 130ft 0kts
28-Jan-18 17:21 48.157230 -122.161711 126 129ft 1kts
28-Jan-18 17:22 48.156457 -122.160185 127 129ft 6kts
28-Jan-18 17:23 48.155558 -122.160049 125 128ft 1kts
28-Jan-18 17:24 48.155645 -122.159784 38 128ft 0kts
28-Jan-18 17:25 48.155644 -122.159784 38 128ft 0kts
28-Jan-18 17:26 48.155644 -122.159784 38 128ft 0kts

Navigation Log

Ident Type
Flight plan parsing failed, navigation log unavailable